createdAt,value
2022-12-20T00:02:20.994Z,96514.84
2022-12-20T00:07:22.767Z,96522.59
2022-12-20T00:12:24.523Z,96523.72
2022-12-20T00:17:26.100Z,96519.91
2022-12-20T00:22:28.039Z,96533.06
2022-12-20T00:27:29.890Z,96526.28
2022-12-20T00:32:31.581Z,96516.28
2022-12-20T00:37:33.527Z,96507.94
2022-12-20T00:42:35.193Z,96507.94
2022-12-20T00:47:36.748Z,96507.09
2022-12-20T00:52:38.281Z,96497.47
2022-12-20T00:57:40.200Z,96515.19
2022-12-20T01:02:41.919Z,96514.41
2022-12-20T01:07:43.583Z,96508.22
2022-12-20T01:12:45.289Z,96500.94
2022-12-20T01:17:47.397Z,96525.50
2022-12-20T01:22:49.038Z,96507.44
2022-12-20T01:27:50.720Z,96512.19
2022-12-20T01:32:52.495Z,96515.19
2022-12-20T01:37:54.485Z,96518.69
2022-12-20T01:42:56.022Z,96502.53
2022-12-20T01:47:59.849Z,96499.03
2022-12-20T01:53:04.249Z,96495.56
2022-12-20T01:58:09.731Z,96483.38
2022-12-20T02:03:13.934Z,96465.34
2022-12-20T02:08:18.381Z,96456.19
2022-12-20T02:13:39.226Z,96468.03
2022-12-20T02:19:00.111Z,96479.91
2022-12-20T02:24:22.167Z,96485.59
2022-12-20T02:30:01.423Z,96479.41
2022-12-20T02:35:04.686Z,96469.00
2022-12-20T02:40:07.144Z,96460.44
2022-12-20T02:45:17.189Z,96465.81
2022-12-20T02:50:45.814Z,96456.81
2022-12-20T02:56:02.115Z,96452.50
2022-12-20T03:01:12.214Z,96455.84
2022-12-20T03:06:14.026Z,96445.06
2022-12-20T03:11:16.173Z,96421.97
2022-12-20T03:16:18.071Z,96418.31
2022-12-20T03:21:19.699Z,96414.34
2022-12-20T03:26:22.780Z,96431.41
2022-12-20T03:31:29.966Z,96427.63
2022-12-20T03:36:32.469Z,96429.50
2022-12-20T03:41:37.544Z,96427.63
2022-12-20T03:46:40.283Z,96431.13
2022-12-20T03:51:42.311Z,96430.34
2022-12-20T03:56:44.244Z,96431.59
2022-12-20T04:01:46.074Z,96423.19
2022-12-20T04:06:48.367Z,96429.06
2022-12-20T04:11:50.813Z,96426.09
2022-12-20T04:16:52.461Z,96416.91
2022-12-20T04:22:04.625Z,96404.56
2022-12-20T04:27:19.486Z,96390.94
2022-12-20T04:32:21.719Z,96389.84
2022-12-20T04:37:24.202Z,96377.16
2022-12-20T04:42:28.504Z,96396.78
2022-12-20T04:47:31.342Z,96415.31
2022-12-20T04:52:51.883Z,96408.53
2022-12-20T04:57:53.620Z,96394.59
2022-12-20T05:02:55.546Z,96399.34
2022-12-20T05:07:59.585Z,96382.56
2022-12-20T05:13:08.956Z,96359.94
2022-12-20T05:18:15.023Z,96381.94
2022-12-20T05:23:42.960Z,96374.66
2022-12-20T05:28:49.658Z,96402.38
2022-12-20T05:33:51.512Z,96393.97
2022-12-20T05:38:56.783Z,96381.78
2022-12-20T05:44:04.608Z,96354.56
2022-12-20T05:49:09.300Z,96365.31
2022-12-20T05:54:11.452Z,96372.28
2022-12-20T05:59:19.552Z,96384.66
2022-12-20T06:04:22.075Z,96363.13
2022-12-20T06:09:23.966Z,96368.50
2022-12-20T06:14:35.279Z,96371.69
2022-12-20T06:19:37.030Z,96375.94
2022-12-20T06:24:44.295Z,96372.94
2022-12-20T06:29:52.106Z,96381.50
2022-12-20T06:34:56.807Z,96365.34
2022-12-20T06:39:58.584Z,96354.59
2022-12-20T06:45:00.320Z,96361.06
2022-12-20T06:50:05.521Z,96357.28
2022-12-20T06:55:07.813Z,96350.31
2022-12-20T07:00:14.013Z,96335.41
2022-12-20T07:05:15.605Z,96339.72
2022-12-20T07:10:17.661Z,96333.50
2022-12-20T07:15:19.258Z,96337.31
2022-12-20T07:20:20.802Z,96331.94
2022-12-20T07:25:22.454Z,96346.53
2022-12-20T07:30:23.985Z,96346.97
2022-12-20T07:35:27.760Z,96370.09
2022-12-20T07:40:29.787Z,96370.25
2022-12-20T07:45:31.430Z,96376.44
2022-12-20T07:50:36.018Z,96370.88
2022-12-20T07:55:40.491Z,96369.47
2022-12-20T08:00:42.824Z,96359.97
2022-12-20T08:05:48.944Z,96359.34
2022-12-20T08:10:50.935Z,96366.31
2022-12-20T08:15:52.525Z,96359.97
2022-12-20T08:20:54.068Z,96352.53
2022-12-20T08:25:55.696Z,96339.53
2022-12-20T08:31:05.468Z,96333.03
2022-12-20T08:36:09.933Z,96342.72
2022-12-20T08:41:14.630Z,96335.91
2022-12-20T08:46:16.279Z,96311.50
2022-12-20T08:51:17.950Z,96320.06
2022-12-20T08:56:20.165Z,96307.53
2022-12-20T09:01:22.897Z,96317.66
2022-12-20T09:06:24.691Z,96298.50
2022-12-20T09:11:27.429Z,96312.91
2022-12-20T09:16:31.446Z,96301.50
2022-12-20T09:21:33.954Z,96300.72
2022-12-20T09:26:35.851Z,96311.13
2022-12-20T09:31:37.644Z,96307.00
2022-12-20T09:36:39.449Z,96298.75
2022-12-20T09:41:43.162Z,96297.81
2022-12-20T09:46:51.600Z,96289.53
2022-12-20T09:52:12.294Z,96294.44
2022-12-20T09:57:51.944Z,96301.22
2022-12-20T10:03:02.035Z,96298.69
2022-12-20T10:08:31.348Z,96281.53
2022-12-20T10:13:53.700Z,96278.66
2022-12-20T10:19:11.668Z,96260.41
2022-12-20T10:24:19.600Z,96273.56
2022-12-20T10:29:21.532Z,96258.31
2022-12-20T10:34:23.703Z,96263.19
2022-12-20T10:39:41.498Z,96248.88
2022-12-20T10:44:44.188Z,96251.06
2022-12-20T10:49:45.838Z,96237.06
2022-12-20T10:54:47.744Z,96224.94
2022-12-20T10:59:53.989Z,96210.63
2022-12-20T11:05:19.248Z,96196.59
2022-12-20T11:10:24.496Z,96187.19
2022-12-20T11:15:34.684Z,96176.63
2022-12-20T11:20:47.446Z,96167.22
2022-12-20T11:26:21.080Z,96173.09
2022-12-20T11:31:48.641Z,96158.47
2022-12-20T11:37:21.384Z,96142.25
2022-12-20T11:42:38.417Z,96131.13
2022-12-20T11:47:58.238Z,96132.84
2022-12-20T11:53:20.798Z,96119.00
2022-12-20T11:58:54.415Z,96101.34
2022-12-20T12:04:17.672Z,96112.16
2022-12-20T12:09:33.424Z,96107.53
2022-12-20T12:14:53.271Z,96113.28
2022-12-20T12:20:00.928Z,96107.88
2022-12-20T12:25:09.007Z,96102.94
2022-12-20T12:30:17.339Z,96093.03
2022-12-20T12:35:44.041Z,96085.38
2022-12-20T12:41:16.469Z,96089.66
2022-12-20T12:46:30.200Z,96082.47
2022-12-20T12:51:38.174Z,96089.56
2022-12-20T12:56:46.237Z,96074.47
2022-12-20T13:01:57.013Z,96069.06
2022-12-20T13:07:00.139Z,96068.75
2022-12-20T13:12:36.412Z,96085.41
2022-12-20T13:17:58.707Z,96100.47
2022-12-20T13:23:10.336Z,96091.91
2022-12-20T13:28:24.045Z,96096.06
2022-12-20T13:33:39.231Z,96060.53
2022-12-20T13:38:44.837Z,96065.47
2022-12-20T13:43:48.321Z,96068.19
2022-12-20T13:48:53.532Z,96058.50
2022-12-20T13:53:55.043Z,96032.94
2022-12-20T13:59:03.165Z,96009.78
2022-12-20T14:04:07.303Z,96027.44
2022-12-20T14:09:28.668Z,96028.59
2022-12-20T14:14:30.226Z,96020.91
2022-12-20T14:19:31.729Z,96026.31
2022-12-20T14:24:34.454Z,96045.22
2022-12-20T14:29:36.071Z,96066.81
2022-12-20T14:34:41.910Z,96055.91
2022-12-20T14:40:04.321Z,96036.91
2022-12-20T14:45:15.933Z,96020.56
2022-12-20T14:50:22.328Z,96023.63
2022-12-20T14:55:30.384Z,96018.22
2022-12-20T15:05:35.761Z,95987.63
2022-12-20T15:10:37.910Z,96003.03
2022-12-20T15:15:39.987Z,95998.75
2022-12-20T15:20:43.139Z,95985.25
2022-12-20T15:25:45.830Z,96002.91
2022-12-20T15:30:50.043Z,96000.88
2022-12-20T15:35:52.545Z,95985.81
2022-12-20T15:41:00.250Z,95988.06
2022-12-20T15:46:01.813Z,95985.69
2022-12-20T15:51:15.683Z,95980.63
2022-12-20T15:56:21.695Z,95978.94
2022-12-20T16:01:39.769Z,95976.25
2022-12-20T16:06:43.499Z,95976.25
2022-12-20T16:11:45.093Z,95976.25
2022-12-20T16:16:48.808Z,95986.69
2022-12-20T16:21:52.094Z,96000.63
2022-12-20T16:26:53.568Z,95994.91
2022-12-20T16:31:55.140Z,96003.78
2022-12-20T16:36:56.873Z,95990.31
2022-12-20T16:41:58.399Z,95996.47
2022-12-20T16:46:59.953Z,95984.91
2022-12-20T16:52:01.509Z,95981.75
2022-12-20T16:57:03.007Z,95979.50
2022-12-20T17:02:22.305Z,95987.59
2022-12-20T17:07:24.307Z,95983.00
2022-12-20T17:12:25.809Z,95973.31
2022-12-20T17:17:27.323Z,95970.94
2022-12-20T17:22:28.897Z,95970.63
2022-12-20T17:27:30.510Z,95959.69
2022-12-20T17:32:32.126Z,95951.59
2022-12-20T17:37:33.825Z,95947.81
2022-12-20T17:42:35.296Z,95945.44
2022-12-20T17:47:36.771Z,95937.34
2022-12-20T17:52:39.413Z,95926.91
2022-12-20T17:57:40.926Z,95915.66
2022-12-20T18:02:42.496Z,95923.28
2022-12-20T18:07:48.854Z,95938.34
2022-12-20T18:12:51.062Z,95940.72
2022-12-20T18:17:52.547Z,95965.31
2022-12-20T18:22:54.045Z,95943.41
2022-12-20T18:27:55.564Z,95954.19
2022-12-20T18:32:57.296Z,95944.19
2022-12-20T18:37:58.834Z,95945.31
2022-12-20T18:43:05.838Z,95969.16
2022-12-20T18:48:07.926Z,95963.28
2022-12-20T18:53:09.849Z,95952.03
2022-12-20T18:58:12.108Z,95933.06
2022-12-20T19:03:16.162Z,95936.09
2022-12-20T19:08:19.020Z,95952.25
2022-12-20T19:13:21.192Z,95925.63
2022-12-20T19:18:22.839Z,95940.22
2022-12-20T19:23:24.574Z,95947.22
2022-12-20T19:28:26.128Z,95942.28
2022-12-20T19:33:27.601Z,95926.09
2022-12-20T19:38:29.113Z,95929.91
2022-12-20T19:43:31.280Z,95905.63
2022-12-20T19:48:33.667Z,95885.28
2022-12-20T19:53:35.470Z,95867.19
2022-12-20T19:58:38.145Z,95878.41
2022-12-20T20:03:39.719Z,95878.41
2022-12-20T20:08:42.429Z,95879.56
2022-12-20T20:13:44.179Z,95860.31
2022-12-20T20:18:46.307Z,95829.53
2022-12-20T20:23:50.036Z,95829.53
2022-12-20T20:28:52.276Z,95837.63
2022-12-20T20:33:53.815Z,95868.19
2022-12-20T20:38:55.790Z,95842.34
2022-12-20T20:43:57.367Z,95840.88
2022-12-20T20:48:59.943Z,95837.84
2022-12-20T20:54:01.505Z,95818.97
2022-12-20T20:59:08.076Z,95824.34
2022-12-20T21:04:10.958Z,95819.28
2022-12-20T21:09:12.573Z,95836.63
2022-12-20T21:14:14.152Z,95845.50
2022-12-20T21:19:16.124Z,95838.84
2022-12-20T21:24:18.320Z,95825.38
2022-12-20T21:29:20.214Z,95841.09
2022-12-20T21:34:21.768Z,95827.94
2022-12-20T21:39:23.324Z,95820.66
2022-12-20T21:44:24.945Z,95817.50
2022-12-20T21:49:27.192Z,95810.53
2022-12-20T21:54:28.708Z,95811.34
2022-12-20T21:59:30.344Z,95816.38
2022-12-20T22:04:32.888Z,95808.72
2022-12-20T22:09:34.393Z,95825.69
2022-12-20T22:14:35.983Z,95831.88
2022-12-20T22:19:38.320Z,95837.41
2022-12-20T22:24:39.835Z,95843.56
2022-12-20T22:29:41.291Z,95828.16
2022-12-20T22:34:42.798Z,95842.78
2022-12-20T22:39:44.368Z,95844.72
2022-12-20T22:44:45.880Z,95831.22
2022-12-20T22:49:47.359Z,95848.88
2022-12-20T22:54:48.905Z,95860.09
2022-12-20T22:59:50.565Z,95846.59
2022-12-20T23:04:52.585Z,95826.59
2022-12-20T23:09:54.110Z,95825.81
2022-12-20T23:15:14.349Z,95813.44
2022-12-20T23:20:34.637Z,95823.91
2022-12-20T23:25:36.152Z,95821.88
2022-12-20T23:30:37.676Z,95819.53
2022-12-20T23:35:39.728Z,95830.75
2022-12-20T23:40:41.370Z,95835.03
2022-12-20T23:45:42.872Z,95825.47
2022-12-20T23:50:44.418Z,95818.59
2022-12-20T23:56:03.482Z,95804.78
